Time;durP1;ratioP1;P1;durP2;ratioP2;P2;SDS_P1;SDS_P2;PMS_P1;PMS_P2;Temp;Humidity;BMP_temperature;BMP_pressure;BME280_temperature;BME280_humidity;BME280_pressure;Samples;Min_cycle;Max_cycle;Signal;HPM_P1;HPM_P2
2024/01/13 00:00:33;;;;;;;9.55;7.95;;;;;;;;;;5121401;28;20237;-65
2024/01/13 00:03:01;;;;;;;10.52;8.57;;;;;;;;;;5120905;28;20241;-65
2024/01/13 00:05:28;;;;;;;9.85;8.07;;;;;;;;;;5120811;28;20301;-65
2024/01/13 00:07:56;;;;;;;8.70;7.70;;;;;;;;;;5121258;28;20267;-65
2024/01/13 00:10:24;;;;;;;9.02;7.68;;;;;;;;;;5121171;28;20203;-65
2024/01/13 00:12:53;;;;;;;9.13;7.32;;;;;;;;;;5121016;28;20199;-65
2024/01/13 00:15:20;;;;;;;8.27;6.82;;;;;;;;;;5120612;28;20301;-65
2024/01/13 00:17:48;;;;;;;7.72;6.93;;;;;;;;;;5120331;28;20198;-64
2024/01/13 00:20:15;;;;;;;7.82;6.63;;;;;;;;;;5120515;28;20529;-64
2024/01/13 00:22:47;;;;;;;7.78;6.80;;;;;;;;;;5120304;28;20284;-64
2024/01/13 00:25:15;;;;;;;7.32;6.60;;;;;;;;;;5119899;28;20580;-64
2024/01/13 00:27:43;;;;;;;9.32;8.35;;;;;;;;;;5119710;28;20673;-64
2024/01/13 00:30:12;;;;;;;9.52;7.50;;;;;;;;;;5120276;27;20210;-64
2024/01/13 00:32:39;;;;;;;8.43;7.55;;;;;;;;;;5119821;28;20209;-64
2024/01/13 00:35:07;;;;;;;8.20;7.40;;;;;;;;;;5120406;28;20202;-64
2024/01/13 00:37:35;;;;;;;8.02;7.00;;;;;;;;;;5120171;28;20263;-64
2024/01/13 00:40:02;;;;;;;7.38;6.57;;;;;;;;;;5120008;28;20595;-64
2024/01/13 00:42:30;;;;;;;7.07;6.30;;;;;;;;;;5120397;28;20227;-64
2024/01/13 00:44:57;;;;;;;8.13;6.63;;;;;;;;;;5119787;28;20203;-64
2024/01/13 00:47:25;;;;;;;7.25;6.30;;;;;;;;;;5120369;28;20207;-64
2024/01/13 00:49:53;;;;;;;7.82;6.32;;;;;;;;;;5120204;28;20297;-64
2024/01/13 00:52:20;;;;;;;7.45;6.22;;;;;;;;;;5120159;28;20250;-64
2024/01/13 00:54:48;;;;;;;6.00;5.40;;;;;;;;;;5120165;28;20203;-64
2024/01/13 00:57:15;;;;;;;8.13;6.13;;;;;;;;;;5120165;28;20241;-64
2024/01/13 00:59:43;;;;;;;7.00;6.20;;;;;;;;;;5119752;28;20317;-65
2024/01/13 01:02:10;;;;;;;6.00;5.40;;;;;;;;;;5120036;27;20253;-65
2024/01/13 01:04:39;;;;;;;6.85;5.88;;;;;;;;;;5119878;28;20267;-65
2024/01/13 01:07:07;;;;;;;6.35;5.30;;;;;;;;;;5120041;27;20267;-65
2024/01/13 01:09:35;;;;;;;6.32;5.22;;;;;;;;;;5119979;28;20261;-65
2024/01/13 01:12:02;;;;;;;5.60;5.00;;;;;;;;;;5119567;28;20211;-64
2024/01/13 01:14:30;;;;;;;5.70;5.15;;;;;;;;;;5119802;28;20209;-65
2024/01/13 01:16:57;;;;;;;5.72;5.18;;;;;;;;;;5119759;28;20203;-65
2024/01/13 01:19:25;;;;;;;5.03;4.53;;;;;;;;;;5119006;28;20214;-65
2024/01/13 01:21:54;;;;;;;5.57;4.50;;;;;;;;;;5119600;28;20226;-65
2024/01/13 01:24:22;;;;;;;5.22;4.72;;;;;;;;;;5119748;28;20203;-65
2024/01/13 01:26:49;;;;;;;5.10;4.60;;;;;;;;;;5119115;28;20210;-65
2024/01/13 01:29:17;;;;;;;5.47;4.90;;;;;;;;;;5119503;28;20536;-65
2024/01/13 01:31:44;;;;;;;5.15;4.65;;;;;;;;;;5119448;28;20203;-65
2024/01/13 01:34:12;;;;;;;5.55;4.63;;;;;;;;;;5119170;27;20470;-65
2024/01/13 01:36:40;;;;;;;5.28;4.78;;;;;;;;;;5118775;28;20755;-65
2024/01/13 01:39:09;;;;;;;5.30;4.13;;;;;;;;;;5119262;28;20209;-65
2024/01/13 01:41:37;;;;;;;4.78;4.30;;;;;;;;;;5119469;27;20210;-64
2024/01/13 01:44:05;;;;;;;4.55;4.15;;;;;;;;;;5118130;28;20329;-64
2024/01/13 01:46:33;;;;;;;4.63;4.07;;;;;;;;;;5119159;28;20602;-65
2024/01/13 01:49:01;;;;;;;4.03;3.63;;;;;;;;;;5118996;28;20514;-65
2024/01/13 01:51:30;;;;;;;4.70;4.20;;;;;;;;;;5118527;28;20202;-65
2024/01/13 01:53:57;;;;;;;4.22;3.83;;;;;;;;;;5118862;28;20203;-65
2024/01/13 01:56:28;;;;;;;4.38;3.97;;;;;;;;;;5119263;28;20246;-65
2024/01/13 01:58:56;;;;;;;4.03;3.63;;;;;;;;;;5118648;27;20231;-65
2024/01/13 02:01:24;;;;;;;3.97;3.47;;;;;;;;;;5119023;28;20203;-64
2024/01/13 02:03:53;;;;;;;4.05;3.65;;;;;;;;;;5118453;28;20262;-64
2024/01/13 02:06:20;;;;;;;3.80;3.50;;;;;;;;;;5119079;28;20294;-65
2024/01/13 02:08:48;;;;;;;3.80;3.50;;;;;;;;;;5118644;28;20213;-65
2024/01/13 02:11:16;;;;;;;4.07;3.67;;;;;;;;;;5118368;28;20264;-65
2024/01/13 02:14:01;;;;;;;4.47;3.83;;;;;;;;;;5118709;28;20644;-65
2024/01/13 02:16:32;;;;;;;4.20;3.45;;;;;;;;;;5118380;28;20203;-64
2024/01/13 02:18:59;;;;;;;3.90;3.40;;;;;;;;;;5118756;28;20203;-64
2024/01/13 02:21:27;;;;;;;3.50;3.20;;;;;;;;;;5118581;28;20231;-64
2024/01/13 02:23:56;;;;;;;3.80;3.40;;;;;;;;;;5118592;28;20233;-65
2024/01/13 02:26:25;;;;;;;3.42;3.13;;;;;;;;;;5118704;28;20203;-65
2024/01/13 02:28:52;;;;;;;4.20;3.25;;;;;;;;;;5118606;28;20230;-65
2024/01/13 02:31:21;;;;;;;3.53;3.22;;;;;;;;;;5118510;28;20203;-65
2024/01/13 02:33:48;;;;;;;3.50;3.20;;;;;;;;;;5118343;28;20206;-65
2024/01/13 02:36:16;;;;;;;3.60;3.30;;;;;;;;;;5118541;28;20261;-65
2024/01/13 02:38:44;;;;;;;3.60;3.13;;;;;;;;;;5118242;28;20768;-65
2024/01/13 02:41:13;;;;;;;3.22;2.92;;;;;;;;;;5118300;28;20212;-65
2024/01/13 02:43:41;;;;;;;3.28;2.97;;;;;;;;;;5118147;28;20223;-65
2024/01/13 02:46:08;;;;;;;3.20;2.90;;;;;;;;;;5118290;28;20263;-65
2024/01/13 02:48:40;;;;;;;3.75;2.95;;;;;;;;;;5118209;28;20219;-65
2024/01/13 02:51:10;;;;;;;3.10;2.85;;;;;;;;;;5118089;28;20247;-65
2024/01/13 02:53:38;;;;;;;3.10;2.80;;;;;;;;;;5118114;28;20207;-65
2024/01/13 02:56:06;;;;;;;3.22;2.92;;;;;;;;;;5117612;28;20582;-65
2024/01/13 02:58:35;;;;;;;2.78;2.58;;;;;;;;;;5117836;28;20210;-65
2024/01/13 03:01:06;;;;;;;3.20;2.90;;;;;;;;;;5117802;28;20202;-65
2024/01/13 03:03:35;;;;;;;2.47;2.28;;;;;;;;;;5118295;28;20227;-65
2024/01/13 03:06:03;;;;;;;2.60;2.40;;;;;;;;;;5118179;28;20279;-65
2024/01/13 03:08:30;;;;;;;2.22;2.03;;;;;;;;;;5117617;28;20531;-65
2024/01/13 03:10:59;;;;;;;2.65;2.40;;;;;;;;;;5117795;28;20210;-65
2024/01/13 03:13:26;;;;;;;2.90;2.70;;;;;;;;;;5117708;28;20209;-65
2024/01/13 03:15:55;;;;;;;2.53;2.30;;;;;;;;;;5118121;28;20563;-65
2024/01/13 03:18:23;;;;;;;2.58;2.38;;;;;;;;;;5117800;28;20239;-64
2024/01/13 03:20:51;;;;;;;2.33;2.13;;;;;;;;;;5117679;28;20210;-65
2024/01/13 03:23:19;;;;;;;2.65;2.35;;;;;;;;;;5117979;28;20262;-65
2024/01/13 03:25:47;;;;;;;2.20;2.00;;;;;;;;;;5117848;28;20512;-65
2024/01/13 03:28:14;;;;;;;2.63;2.42;;;;;;;;;;5117843;28;20264;-65
2024/01/13 03:30:42;;;;;;;2.40;2.20;;;;;;;;;;5117944;28;20203;-65
2024/01/13 03:33:11;;;;;;;2.78;2.33;;;;;;;;;;5117640;28;20199;-65
2024/01/13 03:35:39;;;;;;;2.05;1.85;;;;;;;;;;5117863;28;20231;-65
2024/01/13 03:38:07;;;;;;;2.00;1.80;;;;;;;;;;5117944;28;20207;-65
2024/01/13 03:40:35;;;;;;;2.05;1.90;;;;;;;;;;5117896;28;20486;-65
2024/01/13 03:43:03;;;;;;;2.17;1.98;;;;;;;;;;5117456;28;20262;-65
2024/01/13 03:45:30;;;;;;;2.08;1.90;;;;;;;;;;5117786;28;20243;-65
2024/01/13 03:47:58;;;;;;;2.15;1.95;;;;;;;;;;5117720;28;20203;-65
2024/01/13 03:50:28;;;;;;;1.92;1.83;;;;;;;;;;5117893;28;20302;-65
2024/01/13 03:52:55;;;;;;;2.10;1.80;;;;;;;;;;5117752;28;20461;-65
2024/01/13 03:55:23;;;;;;;2.22;1.70;;;;;;;;;;5117401;28;20203;-65
2024/01/13 03:57:51;;;;;;;2.00;1.80;;;;;;;;;;5117258;28;20203;-65
2024/01/13 04:00:19;;;;;;;2.08;1.85;;;;;;;;;;5117438;28;20329;-65
2024/01/13 04:02:47;;;;;;;1.70;1.60;;;;;;;;;;5117438;28;20603;-65
2024/01/13 04:05:15;;;;;;;2.10;1.90;;;;;;;;;;5117531;28;20245;-65
2024/01/13 04:07:44;;;;;;;2.10;1.90;;;;;;;;;;5119646;28;20206;-65
2024/01/13 04:10:11;;;;;;;1.83;1.73;;;;;;;;;;5121164;28;20210;-65
2024/01/13 04:12:43;;;;;;;1.77;1.67;;;;;;;;;;5120763;28;20301;-64
2024/01/13 04:15:12;;;;;;;1.70;1.60;;;;;;;;;;5120893;28;20289;-68
2024/01/13 04:17:40;;;;;;;1.88;1.77;;;;;;;;;;5120892;28;20203;-65
2024/01/13 04:20:08;;;;;;;1.95;1.75;;;;;;;;;;5120852;28;20215;-64
2024/01/13 04:22:36;;;;;;;1.90;1.60;;;;;;;;;;5120377;28;20643;-64
2024/01/13 04:25:05;;;;;;;1.80;1.70;;;;;;;;;;5120660;27;20600;-64
2024/01/13 04:27:33;;;;;;;1.55;1.42;;;;;;;;;;5120888;28;20203;-64
2024/01/13 04:30:01;;;;;;;1.67;1.58;;;;;;;;;;5120875;28;20206;-64
2024/01/13 04:32:29;;;;;;;1.38;1.27;;;;;;;;;;5120714;27;20209;-64
2024/01/13 04:34:57;;;;;;;1.58;1.48;;;;;;;;;;5120368;27;20264;-64
2024/01/13 04:37:25;;;;;;;1.67;1.55;;;;;;;;;;5120632;28;20547;-64
2024/01/13 04:39:53;;;;;;;1.58;1.48;;;;;;;;;;5120388;28;20213;-64
2024/01/13 04:42:22;;;;;;;2.40;1.77;;;;;;;;;;5120348;28;20487;-64
2024/01/13 04:44:50;;;;;;;1.60;1.50;;;;;;;;;;5120138;28;20219;-64
2024/01/13 04:47:18;;;;;;;2.20;1.35;;;;;;;;;;5120161;28;20214;-64
2024/01/13 04:49:45;;;;;;;1.60;1.50;;;;;;;;;;5120188;27;20549;-64
2024/01/13 04:52:13;;;;;;;2.05;1.65;;;;;;;;;;5120593;28;20261;-65
2024/01/13 04:54:40;;;;;;;1.73;1.63;;;;;;;;;;5120192;28;20199;-65
2024/01/13 04:57:07;;;;;;;2.22;1.80;;;;;;;;;;5120012;28;20210;-65
2024/01/13 04:59:36;;;;;;;2.25;2.05;;;;;;;;;;5119598;28;20757;-65
2024/01/13 05:02:03;;;;;;;2.30;1.85;;;;;;;;;;5120233;28;20203;-65
2024/01/13 05:04:31;;;;;;;1.83;1.73;;;;;;;;;;5119913;28;20749;-64
2024/01/13 05:06:58;;;;;;;1.75;1.65;;;;;;;;;;5119774;28;20225;-64
2024/01/13 05:09:25;;;;;;;1.88;1.77;;;;;;;;;;5119823;28;20289;-64
2024/01/13 05:11:54;;;;;;;1.85;1.65;;;;;;;;;;5119912;28;20203;-64
2024/01/13 05:14:22;;;;;;;1.77;1.67;;;;;;;;;;5119427;28;20194;-64
2024/01/13 05:16:50;;;;;;;2.20;1.90;;;;;;;;;;5119588;28;20210;-64
2024/01/13 05:19:18;;;;;;;1.70;1.60;;;;;;;;;;5119804;28;20224;-64
2024/01/13 05:21:45;;;;;;;2.00;1.80;;;;;;;;;;5119266;28;20563;-65
2024/01/13 05:24:14;;;;;;;1.80;1.70;;;;;;;;;;5119535;28;20219;-65
2024/01/13 05:26:41;;;;;;;2.05;1.85;;;;;;;;;;5119795;28;20297;-65
2024/01/13 05:29:09;;;;;;;1.95;1.75;;;;;;;;;;5118857;28;20203;-65
2024/01/13 05:31:36;;;;;;;1.90;1.80;;;;;;;;;;5119560;28;20594;-65
2024/01/13 05:34:05;;;;;;;2.10;1.90;;;;;;;;;;5119675;28;20210;-65
2024/01/13 05:36:32;;;;;;;2.10;1.90;;;;;;;;;;5119327;28;20674;-65
2024/01/13 05:39:00;;;;;;;2.10;1.90;;;;;;;;;;5119393;28;20203;-65
2024/01/13 05:41:27;;;;;;;2.22;2.00;;;;;;;;;;5119150;28;20210;-65
2024/01/13 05:43:54;;;;;;;2.10;1.90;;;;;;;;;;5119093;28;20238;-65
2024/01/13 05:46:22;;;;;;;2.13;1.92;;;;;;;;;;5119452;28;20215;-65
2024/01/13 05:48:49;;;;;;;2.42;2.13;;;;;;;;;;5119181;28;20202;-65
2024/01/13 05:51:18;;;;;;;1.92;1.73;;;;;;;;;;5118631;28;20225;-65
2024/01/13 05:53:46;;;;;;;1.95;1.83;;;;;;;;;;5118993;28;20206;-65
2024/01/13 05:56:14;;;;;;;2.40;2.20;;;;;;;;;;5118756;28;20214;-64
2024/01/13 05:58:41;;;;;;;2.20;2.00;;;;;;;;;;5118479;28;20630;-64
2024/01/13 06:01:08;;;;;;;2.20;2.00;;;;;;;;;;5119054;28;20218;-64
2024/01/13 06:03:36;;;;;;;2.33;2.13;;;;;;;;;;5118571;28;20319;-64
2024/01/13 06:06:04;;;;;;;2.10;1.90;;;;;;;;;;5118546;28;20202;-65
2024/01/13 06:08:32;;;;;;;1.98;1.77;;;;;;;;;;5118380;28;20214;-65
2024/01/13 06:11:02;;;;;;;2.72;2.15;;;;;;;;;;5118879;28;20233;-65
2024/01/13 06:13:29;;;;;;;2.42;2.13;;;;;;;;;;5118832;28;20669;-65
2024/01/13 06:15:57;;;;;;;2.28;2.08;;;;;;;;;;5118678;28;20247;-66
2024/01/13 06:18:24;;;;;;;2.30;2.10;;;;;;;;;;5118426;28;20237;-65
2024/01/13 06:20:52;;;;;;;2.35;2.15;;;;;;;;;;5118216;28;20213;-65
2024/01/13 06:23:19;;;;;;;2.53;2.33;;;;;;;;;;5117997;28;20252;-65
2024/01/13 06:25:48;;;;;;;2.20;2.00;;;;;;;;;;5118463;28;20579;-65
2024/01/13 06:28:15;;;;;;;2.42;2.22;;;;;;;;;;5118437;28;20229;-64
2024/01/13 06:30:43;;;;;;;1.90;1.80;;;;;;;;;;5117998;28;20210;-65
2024/01/13 06:33:10;;;;;;;2.30;2.10;;;;;;;;;;5118057;28;20213;-65
2024/01/13 06:35:38;;;;;;;2.40;2.17;;;;;;;;;;5118284;28;20202;-65
2024/01/13 06:38:05;;;;;;;2.30;2.10;;;;;;;;;;5118007;28;20203;-65
2024/01/13 06:40:33;;;;;;;2.50;2.30;;;;;;;;;;5118567;28;20226;-65
2024/01/13 06:43:01;;;;;;;2.35;2.15;;;;;;;;;;5117693;28;20202;-65
2024/01/13 06:45:29;;;;;;;2.28;2.08;;;;;;;;;;5118269;28;20226;-65
2024/01/13 06:47:57;;;;;;;2.42;2.22;;;;;;;;;;5118246;28;20598;-65
2024/01/13 06:50:24;;;;;;;2.40;2.20;;;;;;;;;;5117988;28;20614;-65
2024/01/13 06:52:51;;;;;;;2.20;2.00;;;;;;;;;;5118088;28;20203;-65
2024/01/13 06:55:22;;;;;;;2.83;2.63;;;;;;;;;;5117867;28;20225;-65
2024/01/13 06:57:49;;;;;;;2.60;2.38;;;;;;;;;;5117843;28;20218;-65
2024/01/13 07:00:18;;;;;;;2.38;2.08;;;;;;;;;;5117602;28;20230;-65
2024/01/13 07:02:46;;;;;;;2.20;2.00;;;;;;;;;;5117657;28;20214;-65
2024/01/13 07:05:13;;;;;;;2.67;2.47;;;;;;;;;;5117365;28;20223;-65
2024/01/13 07:07:41;;;;;;;2.25;2.05;;;;;;;;;;5117701;28;20210;-64
2024/01/13 07:10:09;;;;;;;2.42;2.22;;;;;;;;;;5117727;28;20492;-65
2024/01/13 07:12:36;;;;;;;2.25;2.05;;;;;;;;;;5117606;28;20286;-65
2024/01/13 07:15:04;;;;;;;2.67;2.20;;;;;;;;;;5117628;28;20206;-65
2024/01/13 07:17:33;;;;;;;2.42;2.22;;;;;;;;;;5117706;28;20228;-65
2024/01/13 07:20:01;;;;;;;2.60;2.40;;;;;;;;;;5117826;28;20213;-65
2024/01/13 07:22:29;;;;;;;2.70;2.40;;;;;;;;;;5117069;28;20203;-65
2024/01/13 07:24:56;;;;;;;2.72;2.53;;;;;;;;;;5117183;28;20552;-65
2024/01/13 07:27:23;;;;;;;2.15;1.95;;;;;;;;;;5117549;28;20256;-65
2024/01/13 07:29:51;;;;;;;2.20;2.00;;;;;;;;;;5117290;28;20233;-65
2024/01/13 07:32:19;;;;;;;2.47;2.28;;;;;;;;;;5117281;28;20207;-65
2024/01/13 07:34:47;;;;;;;2.30;2.10;;;;;;;;;;5116825;28;20210;-64
2024/01/13 07:37:15;;;;;;;2.50;2.30;;;;;;;;;;5117545;28;20203;-64
2024/01/13 07:39:42;;;;;;;2.50;2.28;;;;;;;;;;5117319;28;20218;-64
2024/01/13 07:42:09;;;;;;;2.50;2.30;;;;;;;;;;5118647;28;20787;-64
2024/01/13 07:44:37;;;;;;;2.25;2.05;;;;;;;;;;5121462;28;20227;-65
2024/01/13 07:47:06;;;;;;;2.60;2.40;;;;;;;;;;5120669;28;20201;-65
2024/01/13 07:49:33;;;;;;;2.85;2.53;;;;;;;;;;5120837;28;20230;-65
2024/01/13 07:52:03;;;;;;;2.15;2.05;;;;;;;;;;5121051;28;20207;-65
2024/01/13 07:54:30;;;;;;;2.50;2.30;;;;;;;;;;5121006;28;20579;-65
2024/01/13 07:56:58;;;;;;;2.50;2.30;;;;;;;;;;5121255;28;20621;-65
2024/01/13 07:59:25;;;;;;;10.00;8.52;;;;;;;;;;5121133;28;20234;-65
2024/01/13 08:01:52;;;;;;;9.52;8.52;;;;;;;;;;5121012;28;20202;-65
2024/01/13 08:04:20;;;;;;;7.30;6.60;;;;;;;;;;5121043;28;20243;-65
2024/01/13 08:06:47;;;;;;;6.78;5.90;;;;;;;;;;5120924;28;20206;-65
2024/01/13 08:09:17;;;;;;;7.43;5.88;;;;;;;;;;5120988;28;20203;-65
2024/01/13 08:11:45;;;;;;;6.55;5.88;;;;;;;;;;5120515;28;20207;-65
2024/01/13 08:14:13;;;;;;;6.10;5.50;;;;;;;;;;5119912;28;20288;-65
2024/01/13 08:16:40;;;;;;;6.28;5.38;;;;;;;;;;5120183;28;20210;-65
2024/01/13 08:19:09;;;;;;;6.40;5.22;;;;;;;;;;5120610;28;20203;-65
2024/01/13 08:21:37;;;;;;;5.90;5.28;;;;;;;;;;5120177;28;20564;-65
2024/01/13 08:24:04;;;;;;;6.47;5.15;;;;;;;;;;5120244;28;20203;-65
2024/01/13 08:26:33;;;;;;;7.85;6.82;;;;;;;;;;5120645;28;20203;-65
2024/01/13 08:29:00;;;;;;;37.15;23.83;;;;;;;;;;5120329;28;20206;-65
2024/01/13 08:31:28;;;;;;;27.15;18.83;;;;;;;;;;5120203;28;20228;-64
2024/01/13 08:33:55;;;;;;;22.88;16.00;;;;;;;;;;5120522;28;20210;-64
2024/01/13 08:36:22;;;;;;;19.52;14.70;;;;;;;;;;5120318;28;20221;-64
2024/01/13 08:38:50;;;;;;;20.75;14.18;;;;;;;;;;5120215;28;20229;-65
2024/01/13 08:41:17;;;;;;;19.42;14.02;;;;;;;;;;5120038;28;20495;-65
2024/01/13 08:43:46;;;;;;;18.02;12.77;;;;;;;;;;5119506;28;20195;-65
2024/01/13 08:46:13;;;;;;;16.38;12.25;;;;;;;;;;5119282;28;20218;-65
2024/01/13 08:48:41;;;;;;;18.55;12.52;;;;;;;;;;5118998;28;20203;-65
2024/01/13 08:51:09;;;;;;;16.75;12.02;;;;;;;;;;5119691;28;20225;-65
2024/01/13 08:53:36;;;;;;;15.68;11.50;;;;;;;;;;5119167;28;20558;-65
2024/01/13 08:56:03;;;;;;;14.75;11.45;;;;;;;;;;5119286;28;20205;-65
2024/01/13 08:58:31;;;;;;;14.77;11.23;;;;;;;;;;5119229;28;20214;-65
2024/01/13 09:01:00;;;;;;;19.15;12.75;;;;;;;;;;5119092;28;20583;-65
2024/01/13 09:03:28;;;;;;;16.75;11.27;;;;;;;;;;5118908;28;20203;-65
2024/01/13 09:05:56;;;;;;;14.52;11.52;;;;;;;;;;5119115;28;20280;-65
2024/01/13 09:08:23;;;;;;;14.48;10.75;;;;;;;;;;5119583;28;20567;-65
2024/01/13 09:10:51;;;;;;;14.10;10.02;;;;;;;;;;5119079;28;20210;-65
2024/01/13 09:13:18;;;;;;;12.55;9.55;;;;;;;;;;5118974;28;20234;-65
2024/01/13 09:15:47;;;;;;;15.43;10.02;;;;;;;;;;5119064;28;20199;-65
2024/01/13 09:18:16;;;;;;;14.00;9.18;;;;;;;;;;5119072;28;20297;-65
2024/01/13 09:20:43;;;;;;;15.50;9.23;;;;;;;;;;5119204;28;20202;-65
2024/01/13 09:23:10;;;;;;;13.77;9.20;;;;;;;;;;5118582;28;20207;-65
2024/01/13 09:25:38;;;;;;;11.98;8.35;;;;;;;;;;5118516;28;20784;-65
2024/01/13 09:28:05;;;;;;;10.32;8.10;;;;;;;;;;5118713;28;20214;-65
2024/01/13 09:30:32;;;;;;;10.40;7.30;;;;;;;;;;5118063;28;20202;-65
2024/01/13 09:33:00;;;;;;;11.07;8.02;;;;;;;;;;5118053;28;20217;-64
2024/01/13 09:35:31;;;;;;;9.75;7.45;;;;;;;;;;5118431;28;20199;-64
2024/01/13 09:37:58;;;;;;;10.52;7.65;;;;;;;;;;5118539;28;20622;-64
2024/01/13 09:40:26;;;;;;;11.50;7.45;;;;;;;;;;5118420;28;20488;-64
2024/01/13 09:43:01;;;;;;;8.73;6.72;;;;;;;;;;5117534;28;20575;-64
2024/01/13 09:45:29;;;;;;;8.07;6.63;;;;;;;;;;5118108;27;20261;-64
2024/01/13 09:47:58;;;;;;;8.95;6.72;;;;;;;;;;5118415;28;20211;-64
2024/01/13 09:50:26;;;;;;;8.95;6.75;;;;;;;;;;5118196;28;20210;-64
2024/01/13 09:52:55;;;;;;;9.95;6.75;;;;;;;;;;5117589;28;20203;-65
2024/01/13 09:55:22;;;;;;;8.52;6.30;;;;;;;;;;5117407;28;20660;-65
2024/01/13 09:57:50;;;;;;;8.90;6.13;;;;;;;;;;5117146;28;20215;-65
2024/01/13 10:00:17;;;;;;;6.72;6.03;;;;;;;;;;5117708;28;20238;-65
2024/01/13 10:02:45;;;;;;;7.05;5.65;;;;;;;;;;5117933;28;20494;-65
2024/01/13 10:05:12;;;;;;;9.60;5.78;;;;;;;;;;5116644;28;20308;-65
2024/01/13 10:07:41;;;;;;;6.60;5.70;;;;;;;;;;5117770;28;20563;-65
2024/01/13 10:10:10;;;;;;;7.38;5.53;;;;;;;;;;5117782;28;20210;-65
2024/01/13 10:12:39;;;;;;;6.68;5.78;;;;;;;;;;5117280;28;20203;-65
2024/01/13 10:15:13;;;;;;;6.07;5.05;;;;;;;;;;5117799;28;20605;-65
2024/01/13 10:17:41;;;;;;;6.45;5.53;;;;;;;;;;5117625;28;20209;-64
2024/01/13 10:20:11;;;;;;;5.72;4.82;;;;;;;;;;5117963;28;20210;-65
2024/01/13 10:22:38;;;;;;;6.28;5.28;;;;;;;;;;5117389;28;20271;-65
2024/01/13 10:25:07;;;;;;;5.57;4.72;;;;;;;;;;5117443;28;20227;-65
2024/01/13 10:27:37;;;;;;;6.55;5.03;;;;;;;;;;5117346;28;20480;-65
2024/01/13 10:30:06;;;;;;;5.55;4.88;;;;;;;;;;5117348;28;20264;-64
2024/01/13 10:32:33;;;;;;;8.10;5.55;;;;;;;;;;5117361;28;20265;-64
2024/01/13 10:35:01;;;;;;;6.03;4.75;;;;;;;;;;5117266;28;20228;-64
2024/01/13 10:37:28;;;;;;;5.60;4.93;;;;;;;;;;5116228;28;20237;-64
2024/01/13 10:39:56;;;;;;;5.82;4.70;;;;;;;;;;5116829;28;20480;-65
2024/01/13 10:42:26;;;;;;;5.97;4.32;;;;;;;;;;5117396;28;20326;-65
2024/01/13 10:44:57;;;;;;;5.53;4.47;;;;;;;;;;5115680;28;20258;-65
2024/01/13 10:47:30;;;;;;;5.60;4.63;;;;;;;;;;5116808;28;20203;-65
2024/01/13 10:49:58;;;;;;;5.40;4.55;;;;;;;;;;5117251;28;20233;-65
2024/01/13 10:52:28;;;;;;;6.50;4.70;;;;;;;;;;5115305;28;20331;-65
2024/01/13 10:54:57;;;;;;;5.28;4.32;;;;;;;;;;5116479;28;20613;-65
2024/01/13 10:57:25;;;;;;;6.68;3.95;;;;;;;;;;5115100;28;20311;-65
2024/01/13 10:59:53;;;;;;;4.72;4.20;;;;;;;;;;5116696;28;20253;-65
2024/01/13 11:02:22;;;;;;;5.07;4.25;;;;;;;;;;5116342;28;20213;-65
2024/01/13 11:04:49;;;;;;;5.15;4.15;;;;;;;;;;5116603;28;20202;-65
2024/01/13 11:07:17;;;;;;;8.50;4.70;;;;;;;;;;5116300;28;20587;-65
2024/01/13 11:09:45;;;;;;;4.88;4.38;;;;;;;;;;5116340;28;20205;-65
2024/01/13 11:12:16;;;;;;;4.90;4.05;;;;;;;;;;5115604;28;20268;-65
2024/01/13 11:14:59;;;;;;;6.70;4.45;;;;;;;;;;5116499;28;20203;-65
2024/01/13 11:17:28;;;;;;;5.32;4.10;;;;;;;;;;5119561;28;20264;-65
2024/01/13 11:19:55;;;;;;;4.70;4.20;;;;;;;;;;5119897;28;20210;-65
2024/01/13 11:22:34;;;;;;;5.68;3.80;;;;;;;;;;5120254;28;20233;-65
2024/01/13 11:25:02;;;;;;;5.05;3.97;;;;;;;;;;5119899;28;20467;-65
2024/01/13 11:27:31;;;;;;;5.63;4.30;;;;;;;;;;5120525;28;20207;-64
2024/01/13 11:29:59;;;;;;;5.63;3.83;;;;;;;;;;5120415;28;20211;-64
2024/01/13 11:32:30;;;;;;;7.28;4.22;;;;;;;;;;5120650;28;20517;-65
2024/01/13 11:34:58;;;;;;;5.47;4.43;;;;;;;;;;5120087;28;20203;-65
2024/01/13 11:37:25;;;;;;;5.28;4.15;;;;;;;;;;5120470;28;20279;-65
2024/01/13 11:39:53;;;;;;;5.82;4.10;;;;;;;;;;5120303;28;20206;-65
2024/01/13 11:42:25;;;;;;;6.80;4.53;;;;;;;;;;5119726;28;20213;-65
2024/01/13 11:44:53;;;;;;;5.82;4.32;;;;;;;;;;5119890;27;20199;-65
2024/01/13 11:47:30;;;;;;;6.97;3.97;;;;;;;;;;5119964;28;20210;-65
2024/01/13 11:49:57;;;;;;;4.78;3.55;;;;;;;;;;5120514;28;20527;-65
2024/01/13 11:52:31;;;;;;;4.63;3.80;;;;;;;;;;5119780;28;20207;-65
2024/01/13 11:54:59;;;;;;;5.40;3.92;;;;;;;;;;5120059;28;20253;-65
2024/01/13 11:57:26;;;;;;;5.00;3.72;;;;;;;;;;5120086;28;20211;-65
2024/01/13 11:59:55;;;;;;;4.57;3.95;;;;;;;;;;5120113;28;20261;-65
2024/01/13 12:02:23;;;;;;;5.35;3.97;;;;;;;;;;5119532;28;20622;-65
2024/01/13 12:04:52;;;;;;;6.43;4.00;;;;;;;;;;5117688;28;20214;-65
2024/01/13 12:07:19;;;;;;;4.45;3.70;;;;;;;;;;5119693;28;20259;-65
2024/01/13 12:09:50;;;;;;;6.30;3.88;;;;;;;;;;5113573;28;20535;-65
2024/01/13 12:12:19;;;;;;;6.15;4.30;;;;;;;;;;5115448;28;20206;-65
2024/01/13 12:14:47;;;;;;;8.18;5.60;;;;;;;;;;5100199;28;20245;-65
2024/01/13 12:17:18;;;;;;;7.97;5.47;;;;;;;;;;5103605;28;20273;-64
2024/01/13 12:19:56;;;;;;;6.82;4.88;;;;;;;;;;5119375;28;20582;-64
2024/01/13 12:22:36;;;;;;;101.88;92.13;;;;;;;;;;5120168;28;20202;-65
2024/01/13 12:25:04;;;;;;;60.28;54.28;;;;;;;;;;5119248;28;20210;-65
2024/01/13 12:27:34;;;;;;;45.22;40.92;;;;;;;;;;5099806;28;20231;-65
2024/01/13 12:30:05;;;;;;;41.22;37.08;;;;;;;;;;5099203;28;20214;-64
2024/01/13 12:32:32;;;;;;;41.03;36.92;;;;;;;;;;5105056;28;20223;-65
2024/01/13 12:35:03;;;;;;;39.92;36.13;;;;;;;;;;5118478;28;20199;-65
2024/01/13 12:37:31;;;;;;;37.97;34.20;;;;;;;;;;5099879;28;20540;-64
2024/01/13 12:39:58;;;;;;;36.85;33.35;;;;;;;;;;5099277;28;20196;-65
2024/01/13 12:42:27;;;;;;;36.30;32.70;;;;;;;;;;5099279;28;20203;-65
2024/01/13 12:44:54;;;;;;;35.15;31.75;;;;;;;;;;5118502;28;20210;-65
2024/01/13 12:47:24;;;;;;;33.40;30.10;;;;;;;;;;5117929;28;20223;-65
2024/01/13 12:49:55;;;;;;;33.50;30.20;;;;;;;;;;5118304;28;20211;-65
2024/01/13 12:52:24;;;;;;;33.05;29.85;;;;;;;;;;5119159;28;20203;-65
2024/01/13 12:54:52;;;;;;;31.10;28.10;;;;;;;;;;5118777;28;20202;-65
2024/01/13 12:57:19;;;;;;;29.92;27.00;;;;;;;;;;5117647;28;20207;-65
2024/01/13 12:59:47;;;;;;;28.58;25.88;;;;;;;;;;5118314;28;20223;-65
2024/01/13 13:02:14;;;;;;;29.05;26.35;;;;;;;;;;5118221;28;20199;-65
2024/01/13 13:04:41;;;;;;;27.58;24.85;;;;;;;;;;5118507;28;20610;-65
2024/01/13 13:07:09;;;;;;;32.42;28.55;;;;;;;;;;5118607;28;20230;-65
2024/01/13 13:09:38;;;;;;;68.68;47.70;;;;;;;;;;5117445;28;20217;-64
2024/01/13 13:12:05;;;;;;;62.08;44.53;;;;;;;;;;5118169;28;20203;-65
2024/01/13 13:14:33;;;;;;;61.08;42.35;;;;;;;;;;5118587;28;20342;-65
2024/01/13 13:17:00;;;;;;;57.78;40.78;;;;;;;;;;5118126;28;20274;-65
2024/01/13 13:19:28;;;;;;;52.65;38.95;;;;;;;;;;5117766;27;20202;-65
2024/01/13 13:21:55;;;;;;;51.05;37.78;;;;;;;;;;5117594;28;20202;-64
2024/01/13 13:24:23;;;;;;;49.25;34.97;;;;;;;;;;5118178;28;20621;-64
2024/01/13 13:26:52;;;;;;;47.63;35.53;;;;;;;;;;5117193;28;20223;-65
2024/01/13 13:29:19;;;;;;;46.10;34.80;;;;;;;;;;5117774;28;20284;-65
2024/01/13 13:31:47;;;;;;;39.55;31.73;;;;;;;;;;5119102;28;20211;-65
2024/01/13 13:34:14;;;;;;;43.05;31.65;;;;;;;;;;5117842;28;20202;-65
2024/01/13 13:36:42;;;;;;;41.45;30.98;;;;;;;;;;5117817;28;20199;-65
2024/01/13 13:39:09;;;;;;;38.95;30.55;;;;;;;;;;5115739;28;20534;-65
2024/01/13 13:41:37;;;;;;;36.45;29.83;;;;;;;;;;5106785;28;20268;-65
2024/01/13 13:44:06;;;;;;;36.97;27.55;;;;;;;;;;5110621;28;20732;-65
2024/01/13 13:46:33;;;;;;;34.33;27.85;;;;;;;;;;5110601;28;20494;-65
2024/01/13 13:49:01;;;;;;;32.58;26.65;;;;;;;;;;5117264;28;20199;-64
2024/01/13 13:51:29;;;;;;;33.05;25.80;;;;;;;;;;5117653;28;20203;-65
2024/01/13 13:53:58;;;;;;;31.17;25.08;;;;;;;;;;5104996;28;20204;-65
2024/01/13 13:56:26;;;;;;;28.25;23.92;;;;;;;;;;5097069;28;20200;-65
2024/01/13 13:58:54;;;;;;;28.42;23.33;;;;;;;;;;5096327;28;20598;-64
2024/01/13 14:01:24;;;;;;;30.27;23.90;;;;;;;;;;5099973;28;20202;-65
2024/01/13 14:03:53;;;;;;;30.13;23.20;;;;;;;;;;5117045;28;20203;-65
2024/01/13 14:06:20;;;;;;;28.05;22.08;;;;;;;;;;5117110;28;20773;-65
2024/01/13 14:08:48;;;;;;;26.00;21.17;;;;;;;;;;5117752;28;20658;-65
2024/01/13 14:11:15;;;;;;;26.30;20.83;;;;;;;;;;5117126;28;20214;-65
2024/01/13 14:13:45;;;;;;;24.67;20.50;;;;;;;;;;5116849;28;20218;-65
2024/01/13 14:16:12;;;;;;;22.92;19.02;;;;;;;;;;5117108;28;20190;-65
2024/01/13 14:18:47;;;;;;;24.63;19.45;;;;;;;;;;5111423;28;20210;-65
2024/01/13 14:21:15;;;;;;;21.63;17.85;;;;;;;;;;5097046;28;20218;-65
2024/01/13 14:23:43;;;;;;;24.38;20.25;;;;;;;;;;5096383;28;20195;-65
2024/01/13 14:26:11;;;;;;;23.05;19.05;;;;;;;;;;5112282;28;20322;-65
2024/01/13 14:28:39;;;;;;;20.27;17.77;;;;;;;;;;5095646;28;20210;-65
2024/01/13 14:31:07;;;;;;;21.38;19.10;;;;;;;;;;5103816;28;20203;-64
2024/01/13 14:33:35;;;;;;;19.50;16.70;;;;;;;;;;5103046;28;20199;-64
2024/01/13 14:36:04;;;;;;;19.95;17.45;;;;;;;;;;5112967;28;20199;-65
2024/01/13 14:38:31;;;;;;;19.02;16.50;;;;;;;;;;5116995;28;20213;-65
2024/01/13 14:40:59;;;;;;;18.85;15.68;;;;;;;;;;5116434;28;20227;-64